createdAt,value
2022-09-03T00:00:57.096Z,9.27
2022-09-03T00:03:40.953Z,10.45
2022-09-03T00:06:30.359Z,9.60
2022-09-03T00:09:17.630Z,9.05
2022-09-03T00:12:06.262Z,9.50
2022-09-03T00:14:42.230Z,8.73
2022-09-03T00:17:19.928Z,9.10
2022-09-03T00:20:04.098Z,8.48
2022-09-03T00:22:38.503Z,7.50
2022-09-03T00:25:14.257Z,7.20
2022-09-03T00:27:44.420Z,7.68
2022-09-03T00:30:17.395Z,8.95
2022-09-03T00:32:57.519Z,9.48
2022-09-03T00:35:35.981Z,8.57
2022-09-03T00:38:02.941Z,9.68
2022-09-03T00:41:07.018Z,8.75
2022-09-03T00:43:52.583Z,8.70
2022-09-03T00:46:35.902Z,7.82
2022-09-03T00:49:39.498Z,9.60
2022-09-03T00:52:24.373Z,9.98
2022-09-03T00:54:57.016Z,9.48
2022-09-03T00:58:09.306Z,8.70
2022-09-03T01:00:43.540Z,8.82
2022-09-03T01:04:00.724Z,8.48
2022-09-03T01:06:54.082Z,9.23
2022-09-03T01:09:35.226Z,9.07
2022-09-03T01:12:45.503Z,8.43
2022-09-03T01:15:18.001Z,10.23
2022-09-03T01:18:03.979Z,10.27
2022-09-03T01:21:02.710Z,9.45
2022-09-03T01:23:48.950Z,10.30
2022-09-03T01:26:33.991Z,9.20
2022-09-03T01:29:26.884Z,10.57
2022-09-03T01:32:15.809Z,10.20
2022-09-03T01:35:05.484Z,10.52
2022-09-03T01:38:07.946Z,10.85
2022-09-03T01:41:40.111Z,10.77
2022-09-03T01:45:06.398Z,11.20
2022-09-03T01:48:04.300Z,10.80
2022-09-03T01:50:45.100Z,9.55
2022-09-03T01:53:36.672Z,11.35
2022-09-03T01:56:37.494Z,10.70
2022-09-03T01:59:22.828Z,10.25
2022-09-03T02:02:20.133Z,9.80
2022-09-03T02:05:01.365Z,10.07
2022-09-03T02:07:34.686Z,11.10
2022-09-03T02:10:11.503Z,10.88
2022-09-03T02:12:43.385Z,11.05
2022-09-03T02:15:19.455Z,9.05
2022-09-03T02:17:50.081Z,10.20
2022-09-03T02:20:22.168Z,11.18
2022-09-03T02:22:50.602Z,11.55
2022-09-03T02:25:17.915Z,11.13
2022-09-03T02:27:45.726Z,9.90
2022-09-03T02:30:12.824Z,9.93
2022-09-03T02:32:39.991Z,9.35
2022-09-03T02:35:07.726Z,9.85
2022-09-03T02:37:34.999Z,8.85
2022-09-03T02:40:06.505Z,8.45
2022-09-03T02:42:33.712Z,8.25
2022-09-03T02:45:27.669Z,9.77
2022-09-03T02:48:00.029Z,8.57
2022-09-03T02:50:27.446Z,8.40
2022-09-03T02:52:54.671Z,8.88
2022-09-03T02:55:21.676Z,8.07
2022-09-03T02:57:48.614Z,7.68
2022-09-03T03:00:15.921Z,8.98
2022-09-03T03:02:43.260Z,8.93
2022-09-03T03:05:18.905Z,9.57
2022-09-03T03:07:45.818Z,8.90
2022-09-03T03:10:12.738Z,8.60
2022-09-03T03:12:40.092Z,8.57
2022-09-03T03:15:07.522Z,9.57
2022-09-03T03:17:34.484Z,8.70
2022-09-03T03:20:01.429Z,9.20
2022-09-03T03:22:28.390Z,9.93
2022-09-03T03:24:57.665Z,9.27
2022-09-03T03:27:24.642Z,9.07
2022-09-03T03:29:52.135Z,10.10
2022-09-03T03:32:19.056Z,10.30
2022-09-03T03:34:45.957Z,10.15
2022-09-03T03:37:12.906Z,11.07
2022-09-03T03:39:39.891Z,10.90
2022-09-03T03:42:09.714Z,10.85
2022-09-03T03:44:36.629Z,11.32
2022-09-03T03:47:06.136Z,12.57
2022-09-03T03:49:33.032Z,13.27
2022-09-03T03:52:00.180Z,13.20
2022-09-03T03:54:27.138Z,12.43
2022-09-03T03:56:55.774Z,12.70
2022-09-03T03:59:23.030Z,11.02
2022-09-03T04:01:50.749Z,11.90
2022-09-03T04:04:17.895Z,11.93
2022-09-03T04:06:44.825Z,12.13
2022-09-03T04:09:11.745Z,12.25
2022-09-03T04:11:39.148Z,12.65
2022-09-03T04:14:06.056Z,11.68
2022-09-03T04:16:33.135Z,11.32
2022-09-03T04:19:00.174Z,12.02
2022-09-03T04:21:29.930Z,11.57
2022-09-03T04:23:58.498Z,11.98
2022-09-03T04:26:31.681Z,11.40
2022-09-03T04:29:06.081Z,11.60
2022-09-03T04:31:34.487Z,12.15
2022-09-03T04:34:02.276Z,12.98
2022-09-03T04:36:31.058Z,13.30
2022-09-03T04:39:01.745Z,13.70
2022-09-03T04:41:31.454Z,13.60
2022-09-03T04:43:59.945Z,16.52
2022-09-03T04:46:33.432Z,19.27
2022-09-03T04:49:01.227Z,20.83
2022-09-03T04:51:30.084Z,22.02
2022-09-03T04:54:00.295Z,22.58
2022-09-03T04:56:30.822Z,24.27
2022-09-03T04:59:01.827Z,22.65
2022-09-03T05:01:32.060Z,24.17
2022-09-03T05:04:00.557Z,24.25
2022-09-03T05:06:29.560Z,23.10
2022-09-03T05:08:57.432Z,24.70
2022-09-03T05:11:26.992Z,23.55
2022-09-03T05:13:57.139Z,22.73
2022-09-03T05:16:26.349Z,20.90
2022-09-03T05:18:55.912Z,20.38
2022-09-03T05:21:24.617Z,20.42
2022-09-03T05:23:53.062Z,22.60
2022-09-03T05:26:24.140Z,21.42
2022-09-03T05:28:59.791Z,21.40
2022-09-03T05:31:31.622Z,22.02
2022-09-03T05:34:02.893Z,23.40
2022-09-03T05:36:37.221Z,20.52
2022-09-03T05:39:05.737Z,21.38
2022-09-03T05:41:34.020Z,21.60
2022-09-03T05:44:01.458Z,22.92
2022-09-03T05:46:32.432Z,22.58
2022-09-03T05:49:02.065Z,23.75
2022-09-03T05:51:30.393Z,22.98
2022-09-03T05:53:58.566Z,25.30
2022-09-03T05:56:27.957Z,25.65
2022-09-03T05:59:01.959Z,22.75
2022-09-03T06:01:32.657Z,21.52
2022-09-03T06:04:06.037Z,24.02
2022-09-03T06:06:36.493Z,27.02
2022-09-03T06:09:10.739Z,24.13
2022-09-03T06:11:39.723Z,23.88
2022-09-03T06:14:12.626Z,24.38
2022-09-03T06:16:46.472Z,25.02
2022-09-03T06:19:15.642Z,25.55
2022-09-03T06:21:44.814Z,22.38
2022-09-03T06:24:15.172Z,22.05
2022-09-03T06:26:43.264Z,20.67
2022-09-03T06:29:11.243Z,24.42
2022-09-03T06:31:39.343Z,21.45
2022-09-03T06:34:06.625Z,22.75
2022-09-03T06:36:33.922Z,26.20
2022-09-03T06:39:01.469Z,22.77
2022-09-03T06:41:35.256Z,19.77
2022-09-03T06:44:11.580Z,23.20
2022-09-03T06:46:42.414Z,21.58
2022-09-03T06:49:10.704Z,17.92
2022-09-03T06:51:39.258Z,20.92
2022-09-03T06:54:08.878Z,19.20
2022-09-03T06:56:40.562Z,19.77
2022-09-03T06:59:14.389Z,19.23
2022-09-03T07:01:45.454Z,16.50
2022-09-03T07:04:19.262Z,17.50
2022-09-03T07:06:47.465Z,15.70
2022-09-03T07:09:15.857Z,14.75
2022-09-03T07:11:46.955Z,14.20
2022-09-03T07:14:17.941Z,11.85
2022-09-03T07:16:46.129Z,11.25
2022-09-03T07:19:13.684Z,10.68
2022-09-03T07:21:45.297Z,9.85
2022-09-03T07:24:16.193Z,11.40
2022-09-03T07:26:49.695Z,10.57
2022-09-03T07:29:20.437Z,10.90
2022-09-03T07:31:51.433Z,9.57
2022-09-03T07:34:19.758Z,9.93
2022-09-03T07:36:50.946Z,10.85
2022-09-03T07:39:18.738Z,9.57
2022-09-03T07:41:46.881Z,9.65
2022-09-03T07:44:19.263Z,10.40
2022-09-03T07:46:47.951Z,9.77
2022-09-03T07:49:15.307Z,9.80
2022-09-03T07:51:42.323Z,8.65
2022-09-03T07:54:11.566Z,8.85
2022-09-03T07:56:40.506Z,8.60
2022-09-03T07:59:08.514Z,7.85
2022-09-03T08:01:37.009Z,8.13
2022-09-03T08:04:09.344Z,8.07
2022-09-03T08:06:40.267Z,7.95
2022-09-03T08:09:11.456Z,8.25
2022-09-03T08:11:41.595Z,7.97
2022-09-03T08:14:11.286Z,8.18
2022-09-03T08:16:49.660Z,7.90
2022-09-03T08:19:18.645Z,7.90
2022-09-03T08:21:46.000Z,7.30
2022-09-03T08:24:16.182Z,8.25
2022-09-03T08:26:46.536Z,8.27
2022-09-03T08:29:18.608Z,8.10
2022-09-03T08:31:45.609Z,8.02
2022-09-03T08:34:14.524Z,8.70
2022-09-03T08:36:41.512Z,8.50
2022-09-03T08:39:11.102Z,8.77
2022-09-03T08:42:20.117Z,8.05
2022-09-03T08:44:56.053Z,8.23
2022-09-03T08:47:34.136Z,8.77
2022-09-03T08:50:22.914Z,8.82
2022-09-03T08:53:02.079Z,8.23
2022-09-03T08:55:36.529Z,8.13
2022-09-03T08:58:16.642Z,7.97
2022-09-03T09:01:10.128Z,9.00
2022-09-03T09:04:03.457Z,8.07
2022-09-03T09:07:13.856Z,7.88
2022-09-03T09:09:55.632Z,8.63
2022-09-03T09:12:54.710Z,8.75
2022-09-03T09:15:55.633Z,6.88
2022-09-03T09:18:25.547Z,7.05
2022-09-03T09:20:57.263Z,7.93
2022-09-03T09:23:33.889Z,7.70
2022-09-03T09:26:07.354Z,7.43
2022-09-03T09:28:40.733Z,7.15
2022-09-03T09:31:15.458Z,7.63
2022-09-03T09:33:43.315Z,8.50
2022-09-03T09:36:17.105Z,7.40
2022-09-03T09:38:46.668Z,6.72
2022-09-03T09:41:19.664Z,6.40
2022-09-03T09:43:48.271Z,7.60
2022-09-03T09:46:25.997Z,6.60
2022-09-03T09:48:57.289Z,6.93
2022-09-03T09:51:26.814Z,7.55
2022-09-03T09:54:18.653Z,7.20
2022-09-03T09:56:47.092Z,7.85
2022-09-03T09:59:15.396Z,7.60
2022-09-03T10:01:47.393Z,7.57
2022-09-03T10:04:33.038Z,8.05
2022-09-03T10:07:32.968Z,8.25
2022-09-03T10:10:06.373Z,10.00
2022-09-03T10:12:44.274Z,10.57
2022-09-03T10:15:35.130Z,9.15
2022-09-03T10:18:42.471Z,9.55
2022-09-03T10:21:34.326Z,10.60
2022-09-03T10:24:56.819Z,11.23
2022-09-03T10:27:24.130Z,9.98
2022-09-03T10:29:51.325Z,11.32
2022-09-03T10:32:39.038Z,11.30
2022-09-03T10:35:33.676Z,11.07
2022-09-03T10:38:18.913Z,11.27
2022-09-03T10:40:54.664Z,12.68
2022-09-03T10:43:58.777Z,10.30
2022-09-03T10:46:41.616Z,12.38
2022-09-03T10:49:31.753Z,12.73
2022-09-03T10:52:12.460Z,14.77
2022-09-03T10:55:00.553Z,16.55
2022-09-03T10:58:04.147Z,16.17
2022-09-03T11:00:34.214Z,12.18
2022-09-03T11:03:35.879Z,12.32
2022-09-03T11:06:15.553Z,13.82
2022-09-03T11:08:51.998Z,13.38
2022-09-03T11:11:31.041Z,15.13
2022-09-03T11:14:11.598Z,12.00
2022-09-03T11:16:46.260Z,12.85
2022-09-03T11:19:36.691Z,12.88
2022-09-03T11:22:06.529Z,13.98
2022-09-03T11:24:35.273Z,13.45
2022-09-03T11:27:26.245Z,14.27
2022-09-03T11:30:25.339Z,13.55
2022-09-03T11:33:01.087Z,12.55
2022-09-03T11:35:41.758Z,10.05
2022-09-03T11:38:18.866Z,9.40
2022-09-03T11:41:15.827Z,9.52
2022-09-03T11:43:44.421Z,8.98
2022-09-03T11:46:23.729Z,8.13
2022-09-03T11:49:16.370Z,8.73
2022-09-03T11:51:44.107Z,7.95
2022-09-03T11:54:14.075Z,6.38
2022-09-03T11:56:42.887Z,5.78
2022-09-03T11:59:13.767Z,8.80
2022-09-03T12:01:53.640Z,9.52
2022-09-03T12:04:42.804Z,9.23
2022-09-03T12:08:17.281Z,7.47
2022-09-03T12:11:25.594Z,6.63
2022-09-03T12:14:25.917Z,8.00
2022-09-03T12:17:12.192Z,7.40
2022-09-03T12:20:11.934Z,8.38
2022-09-03T12:22:39.763Z,6.38
2022-09-03T12:25:15.383Z,6.03
2022-09-03T12:27:46.765Z,5.68
2022-09-03T12:30:23.933Z,5.28
2022-09-03T12:32:52.337Z,5.15
2022-09-03T12:38:18.277Z,5.00
2022-09-03T12:43:37.626Z,4.38
2022-09-03T12:46:10.450Z,4.93
2022-09-03T12:48:40.478Z,3.92
2022-09-03T12:53:54.747Z,4.60
2022-09-03T12:56:22.919Z,3.90
2022-09-03T12:58:56.099Z,3.97
2022-09-03T13:01:31.244Z,4.00
2022-09-03T13:04:19.338Z,4.15
2022-09-03T13:07:11.805Z,3.95
2022-09-03T13:09:41.300Z,3.50
2022-09-03T13:12:33.879Z,3.95
2022-09-03T13:15:19.782Z,3.03
2022-09-03T13:18:47.538Z,3.10
2022-09-03T13:21:22.332Z,3.13
2022-09-03T13:24:09.532Z,3.40
2022-09-03T13:26:49.502Z,3.50
2022-09-03T13:29:40.315Z,3.30
2022-09-03T13:32:40.742Z,2.92
2022-09-03T13:35:32.392Z,3.60
2022-09-03T13:38:24.689Z,3.17
2022-09-03T13:41:20.090Z,3.50
2022-09-03T13:44:05.114Z,3.20
2022-09-03T13:46:42.398Z,2.92
2022-09-03T13:49:58.611Z,3.20
2022-09-03T13:52:46.958Z,3.63
2022-09-03T13:55:50.995Z,2.85
2022-09-03T13:58:31.588Z,3.65
2022-09-03T14:00:58.557Z,3.30
2022-09-03T14:03:36.604Z,3.40
2022-09-03T14:06:46.229Z,2.58
2022-09-03T14:09:40.266Z,3.08
2022-09-03T14:12:35.976Z,3.22
2022-09-03T14:15:29.428Z,2.72
2022-09-03T14:18:35.711Z,2.40
2022-09-03T14:21:10.236Z,2.80
2022-09-03T14:24:05.554Z,2.50
2022-09-03T14:26:39.476Z,2.70
2022-09-03T14:29:13.112Z,2.88
2022-09-03T14:31:58.728Z,2.45
2022-09-03T14:34:46.349Z,2.83
2022-09-03T14:37:50.265Z,2.88
2022-09-03T14:40:31.876Z,2.80
2022-09-03T14:43:13.714Z,2.90
2022-09-03T14:45:56.033Z,2.90
2022-09-03T14:49:03.343Z,2.90
2022-09-03T14:51:47.423Z,2.63
2022-09-03T14:54:49.863Z,2.65
2022-09-03T14:58:03.869Z,2.53
2022-09-03T15:00:48.468Z,2.60
2022-09-03T15:03:46.941Z,2.90
2022-09-03T15:06:30.879Z,2.85
2022-09-03T15:09:27.274Z,2.88
2022-09-03T15:12:06.858Z,2.65
2022-09-03T15:14:50.564Z,3.20
2022-09-03T15:17:52.329Z,2.60
2022-09-03T15:20:46.913Z,3.00
2022-09-03T15:23:17.759Z,3.17
2022-09-03T15:26:25.141Z,3.20
2022-09-03T15:29:27.954Z,2.92
2022-09-03T15:32:26.757Z,3.13
2022-09-03T15:35:19.611Z,3.05
2022-09-03T15:37:53.549Z,2.67
2022-09-03T15:40:43.032Z,2.85
2022-09-03T15:43:21.874Z,3.10
2022-09-03T15:46:03.102Z,3.00
2022-09-03T15:48:57.258Z,3.40
2022-09-03T15:51:30.243Z,3.20
2022-09-03T15:54:43.093Z,3.22
2022-09-03T15:57:26.744Z,3.15
2022-09-03T16:00:12.991Z,3.30
2022-09-03T16:03:07.639Z,3.70
2022-09-03T16:06:02.875Z,3.20
2022-09-03T16:08:54.140Z,3.28
2022-09-03T16:11:26.733Z,3.10
2022-09-03T16:14:05.299Z,3.42
2022-09-03T16:16:56.688Z,3.65
2022-09-03T16:19:34.740Z,3.38
2022-09-03T16:22:22.406Z,3.28
2022-09-03T16:25:00.481Z,3.20
2022-09-03T16:27:43.169Z,3.40
2022-09-03T16:30:14.906Z,3.00
2022-09-03T16:33:21.583Z,2.63
2022-09-03T16:36:02.090Z,3.13
2022-09-03T16:38:49.072Z,3.40
2022-09-03T16:41:27.768Z,3.10
2022-09-03T16:44:03.010Z,2.95
2022-09-03T16:46:56.767Z,3.00
2022-09-03T16:49:46.043Z,3.03
2022-09-03T16:52:39.041Z,2.88
2022-09-03T16:55:34.173Z,2.50
2022-09-03T16:58:45.006Z,2.30
2022-09-03T17:01:26.920Z,2.85
2022-09-03T17:04:39.450Z,2.50
2022-09-03T17:07:43.022Z,3.20
2022-09-03T17:10:33.819Z,3.30
2022-09-03T17:13:25.289Z,2.95
2022-09-03T17:16:38.450Z,3.38
2022-09-03T17:19:32.158Z,3.17
2022-09-03T17:22:40.549Z,3.78
2022-09-03T17:25:36.938Z,4.18
2022-09-03T17:28:42.578Z,3.47
2022-09-03T17:31:30.940Z,2.85
2022-09-03T17:34:09.937Z,3.28
2022-09-03T17:37:22.143Z,3.65
2022-09-03T17:40:07.565Z,3.53
2022-09-03T17:43:05.028Z,3.17
2022-09-03T17:46:39.313Z,3.20
2022-09-03T17:49:17.509Z,2.78
2022-09-03T17:52:07.670Z,3.70
2022-09-03T17:54:47.039Z,3.50
2022-09-03T17:57:31.147Z,3.78
2022-09-03T18:00:10.306Z,3.30
2022-09-03T18:02:59.503Z,2.55
2022-09-03T18:05:33.024Z,2.65
2022-09-03T18:08:12.561Z,2.30
2022-09-03T18:11:12.771Z,2.28
2022-09-03T18:14:07.584Z,2.30
2022-09-03T18:17:09.932Z,2.72
2022-09-03T18:20:04.214Z,2.40
2022-09-03T18:23:26.019Z,2.63
2022-09-03T18:26:34.741Z,2.53
2022-09-03T18:29:35.094Z,2.33
2022-09-03T18:32:21.038Z,2.40
2022-09-03T18:35:06.566Z,2.70
2022-09-03T18:37:51.883Z,2.20
2022-09-03T18:40:45.498Z,3.05
2022-09-03T18:43:56.966Z,3.33
2022-09-03T18:50:44.471Z,7.65
2022-09-03T18:53:41.873Z,7.28
2022-09-03T18:57:06.791Z,6.18
2022-09-03T19:00:28.777Z,4.10
2022-09-03T19:03:54.044Z,3.70
2022-09-03T19:06:56.790Z,3.60
2022-09-03T19:10:14.872Z,3.40
2022-09-03T19:13:42.807Z,3.20
2022-09-03T19:16:35.955Z,3.10
2022-09-03T19:20:00.618Z,3.83
2022-09-03T19:22:55.895Z,3.03
2022-09-03T19:25:44.086Z,4.10
2022-09-03T19:28:50.044Z,3.42
2022-09-03T19:31:50.519Z,3.33
2022-09-03T19:35:13.187Z,4.47
2022-09-03T19:38:16.486Z,3.70
2022-09-03T19:41:36.181Z,3.42
2022-09-03T19:44:53.015Z,3.40
2022-09-03T19:47:56.616Z,3.75
2022-09-03T19:50:48.629Z,4.10
2022-09-03T19:53:38.320Z,3.80
2022-09-03T19:56:46.774Z,4.22
2022-09-03T19:59:39.761Z,4.40
2022-09-03T20:02:25.465Z,4.28
2022-09-03T20:05:20.952Z,3.53
2022-09-03T20:08:11.122Z,3.90
2022-09-03T20:10:38.167Z,3.80
2022-09-03T20:13:19.310Z,3.58
2022-09-03T20:16:22.699Z,3.65
2022-09-03T20:18:59.151Z,4.60
2022-09-03T20:22:15.743Z,4.28
2022-09-03T20:25:31.909Z,4.40
2022-09-03T20:28:32.927Z,4.10
2022-09-03T20:31:22.157Z,4.35
2022-09-03T20:34:25.667Z,4.43
2022-09-03T20:37:09.576Z,3.75
2022-09-03T20:39:43.896Z,3.78
2022-09-03T20:42:19.894Z,3.88
2022-09-03T20:45:06.603Z,3.63
2022-09-03T20:48:02.343Z,3.92
2022-09-03T20:50:56.465Z,4.00
2022-09-03T20:54:08.710Z,4.03
2022-09-03T20:57:14.537Z,3.70
2022-09-03T21:00:02.898Z,3.90
2022-09-03T21:03:00.721Z,3.75
2022-09-03T21:05:48.750Z,4.60
2022-09-03T21:08:48.304Z,4.28
2022-09-03T21:11:38.483Z,3.92
2022-09-03T21:14:14.443Z,3.78
2022-09-03T21:17:18.744Z,4.85
2022-09-03T21:20:08.355Z,4.85
2022-09-03T21:22:41.311Z,4.63
2022-09-03T21:25:15.375Z,4.30
2022-09-03T21:27:58.014Z,4.40
2022-09-03T21:30:24.931Z,4.20
2022-09-03T21:33:03.393Z,4.15
2022-09-03T21:35:49.569Z,4.53
2022-09-03T21:38:25.158Z,4.53
2022-09-03T21:41:12.862Z,4.90
2022-09-03T21:44:13.223Z,4.30
2022-09-03T21:47:06.790Z,4.90
2022-09-03T21:49:50.234Z,4.43
2022-09-03T21:52:33.767Z,5.22
2022-09-03T21:55:01.154Z,5.55
2022-09-03T21:57:46.061Z,5.45
2022-09-03T22:00:19.305Z,5.50
2022-09-03T22:02:47.844Z,5.53
2022-09-03T22:05:16.537Z,5.15
2022-09-03T22:08:14.574Z,5.63
2022-09-03T22:11:16.141Z,5.70
2022-09-03T22:14:09.123Z,6.05
2022-09-03T22:16:49.848Z,6.45
2022-09-03T22:19:17.062Z,6.15
2022-09-03T22:22:01.918Z,6.75
2022-09-03T22:25:14.051Z,6.53
2022-09-03T22:27:46.801Z,6.38
2022-09-03T22:30:20.235Z,6.47
2022-09-03T22:33:05.367Z,6.25
2022-09-03T22:35:53.903Z,6.93
2022-09-03T22:38:45.976Z,6.70
2022-09-03T22:41:54.296Z,7.45
2022-09-03T22:45:16.400Z,6.30
2022-09-03T22:47:54.382Z,7.13
2022-09-03T22:50:51.535Z,6.50
2022-09-03T22:53:48.509Z,6.95
2022-09-03T22:56:21.944Z,7.03
2022-09-03T22:59:10.504Z,6.43
2022-09-03T23:01:45.183Z,6.80
2022-09-03T23:04:38.885Z,7.60
2022-09-03T23:07:18.817Z,8.65
2022-09-03T23:09:57.749Z,8.55
2022-09-03T23:12:45.045Z,7.18
2022-09-03T23:15:23.632Z,9.40
2022-09-03T23:18:20.621Z,8.35
2022-09-03T23:21:09.903Z,9.38
2022-09-03T23:24:13.942Z,10.27
2022-09-03T23:26:51.329Z,10.57
2022-09-03T23:29:41.236Z,11.05
2022-09-03T23:32:09.419Z,11.52
2022-09-03T23:34:38.018Z,10.23
2022-09-03T23:37:38.072Z,11.02
2022-09-03T23:40:28.597Z,10.00
2022-09-03T23:42:58.240Z,10.07
2022-09-03T23:46:03.934Z,12.55
2022-09-03T23:49:05.079Z,15.85
2022-09-03T23:52:26.882Z,15.80
2022-09-03T23:55:05.626Z,15.88
2022-09-03T23:58:06.058Z,15.65
